sensor_id;sensor_type;location;lat;lon;timestamp;P1;durP1;ratioP1;P2;durP2;ratioP2
69856;SDS011;57147;53.582;10.112;2023-04-15T00:05:01;6.05;;;4.32;;
69856;SDS011;57147;53.582;10.112;2023-04-15T00:10:02;7.50;;;4.85;;
69856;SDS011;57147;53.582;10.112;2023-04-15T00:15:04;5.53;;;3.97;;
69856;SDS011;57147;53.582;10.112;2023-04-15T00:20:08;8.13;;;6.70;;
69856;SDS011;57147;53.582;10.112;2023-04-15T00:25:09;6.75;;;4.75;;
69856;SDS011;57147;53.582;10.112;2023-04-15T00:30:10;6.53;;;4.07;;
69856;SDS011;57147;53.582;10.112;2023-04-15T00:35:13;7.85;;;5.10;;
69856;SDS011;57147;53.582;10.112;2023-04-15T00:40:14;7.55;;;5.72;;
69856;SDS011;57147;53.582;10.112;2023-04-15T00:45:17;7.03;;;5.35;;
69856;SDS011;57147;53.582;10.112;2023-04-15T00:50:21;9.93;;;6.00;;
69856;SDS011;57147;53.582;10.112;2023-04-15T00:55:21;9.18;;;7.60;;
69856;SDS011;57147;53.582;10.112;2023-04-15T01:00:22;11.30;;;7.20;;
69856;SDS011;57147;53.582;10.112;2023-04-15T01:05:26;12.63;;;7.25;;
69856;SDS011;57147;53.582;10.112;2023-04-15T01:10:27;10.30;;;6.90;;
69856;SDS011;57147;53.582;10.112;2023-04-15T01:15:28;9.48;;;6.93;;
69856;SDS011;57147;53.582;10.112;2023-04-15T01:20:32;12.80;;;8.07;;
69856;SDS011;57147;53.582;10.112;2023-04-15T01:25:36;11.85;;;7.00;;
69856;SDS011;57147;53.582;10.112;2023-04-15T01:30:37;12.45;;;7.32;;
69856;SDS011;57147;53.582;10.112;2023-04-15T01:35:37;10.77;;;7.85;;
69856;SDS011;57147;53.582;10.112;2023-04-15T01:40:40;14.10;;;7.20;;
69856;SDS011;57147;53.582;10.112;2023-04-15T01:45:41;11.43;;;7.40;;
69856;SDS011;57147;53.582;10.112;2023-04-15T01:50:42;11.85;;;7.05;;
69856;SDS011;57147;53.582;10.112;2023-04-15T01:55:45;12.20;;;7.15;;
69856;SDS011;57147;53.582;10.112;2023-04-15T02:00:45;13.70;;;8.57;;
69856;SDS011;57147;53.582;10.112;2023-04-15T02:05:46;12.90;;;7.72;;
69856;SDS011;57147;53.582;10.112;2023-04-15T02:10:55;13.57;;;8.32;;
69856;SDS011;57147;53.582;10.112;2023-04-15T02:16:03;12.85;;;8.15;;
69856;SDS011;57147;53.582;10.112;2023-04-15T02:21:14;12.75;;;7.70;;
69856;SDS011;57147;53.582;10.112;2023-04-15T02:26:17;11.82;;;7.40;;
69856;SDS011;57147;53.582;10.112;2023-04-15T02:31:17;14.02;;;8.70;;
69856;SDS011;57147;53.582;10.112;2023-04-15T02:36:18;12.43;;;7.82;;
69856;SDS011;57147;53.582;10.112;2023-04-15T02:41:21;15.73;;;8.65;;
69856;SDS011;57147;53.582;10.112;2023-04-15T02:46:22;14.98;;;8.15;;
69856;SDS011;57147;53.582;10.112;2023-04-15T02:51:22;14.20;;;7.95;;
69856;SDS011;57147;53.582;10.112;2023-04-15T02:56:26;17.48;;;9.07;;
69856;SDS011;57147;53.582;10.112;2023-04-15T03:01:26;19.48;;;10.25;;
69856;SDS011;57147;53.582;10.112;2023-04-15T03:06:27;19.83;;;12.38;;
69856;SDS011;57147;53.582;10.112;2023-04-15T03:11:30;18.30;;;9.07;;
69856;SDS011;57147;53.582;10.112;2023-04-15T03:16:31;19.02;;;9.30;;
69856;SDS011;57147;53.582;10.112;2023-04-15T03:21:32;17.65;;;9.15;;
69856;SDS011;57147;53.582;10.112;2023-04-15T03:26:35;20.10;;;10.70;;
69856;SDS011;57147;53.582;10.112;2023-04-15T03:31:36;21.02;;;10.85;;
69856;SDS011;57147;53.582;10.112;2023-04-15T03:36:36;21.65;;;11.35;;
69856;SDS011;57147;53.582;10.112;2023-04-15T03:41:40;24.90;;;11.90;;
69856;SDS011;57147;53.582;10.112;2023-04-15T03:46:40;20.52;;;10.43;;
69856;SDS011;57147;53.582;10.112;2023-04-15T03:51:41;25.52;;;11.80;;
69856;SDS011;57147;53.582;10.112;2023-04-15T03:56:44;25.10;;;11.18;;
69856;SDS011;57147;53.582;10.112;2023-04-15T04:01:45;28.20;;;12.30;;
69856;SDS011;57147;53.582;10.112;2023-04-15T04:06:45;24.85;;;14.25;;
69856;SDS011;57147;53.582;10.112;2023-04-15T04:11:49;28.67;;;13.02;;
69856;SDS011;57147;53.582;10.112;2023-04-15T04:16:49;27.77;;;13.38;;
69856;SDS011;57147;53.582;10.112;2023-04-15T04:21:50;30.52;;;15.77;;
69856;SDS011;57147;53.582;10.112;2023-04-15T04:26:53;31.60;;;13.68;;
69856;SDS011;57147;53.582;10.112;2023-04-15T04:31:55;32.72;;;15.20;;
69856;SDS011;57147;53.582;10.112;2023-04-15T04:36:56;37.08;;;17.63;;
69856;SDS011;57147;53.582;10.112;2023-04-15T04:41:59;39.03;;;16.60;;
69856;SDS011;57147;53.582;10.112;2023-04-15T04:47:00;35.85;;;16.80;;
69856;SDS011;57147;53.582;10.112;2023-04-15T04:52:00;39.30;;;17.98;;
69856;SDS011;57147;53.582;10.112;2023-04-15T04:57:03;39.95;;;18.02;;
69856;SDS011;57147;53.582;10.112;2023-04-15T05:02:04;49.70;;;20.63;;
69856;SDS011;57147;53.582;10.112;2023-04-15T05:07:04;41.92;;;21.67;;
69856;SDS011;57147;53.582;10.112;2023-04-15T05:12:08;41.38;;;18.75;;
69856;SDS011;57147;53.582;10.112;2023-04-15T05:17:09;34.00;;;17.10;;
69856;SDS011;57147;53.582;10.112;2023-04-15T05:22:09;39.83;;;20.20;;
69856;SDS011;57147;53.582;10.112;2023-04-15T05:27:13;42.75;;;21.40;;
69856;SDS011;57147;53.582;10.112;2023-04-15T05:32:13;39.42;;;20.58;;
69856;SDS011;57147;53.582;10.112;2023-04-15T05:37:14;39.45;;;19.35;;
69856;SDS011;57147;53.582;10.112;2023-04-15T05:42:17;46.20;;;26.10;;
69856;SDS011;57147;53.582;10.112;2023-04-15T05:47:18;44.40;;;20.73;;
69856;SDS011;57147;53.582;10.112;2023-04-15T05:52:18;50.88;;;23.92;;
69856;SDS011;57147;53.582;10.112;2023-04-15T05:57:21;43.15;;;21.60;;
69856;SDS011;57147;53.582;10.112;2023-04-15T06:02:23;43.13;;;21.67;;
69856;SDS011;57147;53.582;10.112;2023-04-15T06:07:24;41.13;;;20.58;;
69856;SDS011;57147;53.582;10.112;2023-04-15T06:12:27;48.88;;;22.92;;
69856;SDS011;57147;53.582;10.112;2023-04-15T06:17:27;56.40;;;25.52;;
69856;SDS011;57147;53.582;10.112;2023-04-15T06:22:28;53.42;;;24.90;;
69856;SDS011;57147;53.582;10.112;2023-04-15T06:27:31;52.42;;;25.63;;
69856;SDS011;57147;53.582;10.112;2023-04-15T06:32:33;51.50;;;22.80;;
69856;SDS011;57147;53.582;10.112;2023-04-15T06:37:34;53.97;;;23.42;;
69856;SDS011;57147;53.582;10.112;2023-04-15T06:42:37;50.58;;;24.15;;
69856;SDS011;57147;53.582;10.112;2023-04-15T06:47:38;43.80;;;20.85;;
69856;SDS011;57147;53.582;10.112;2023-04-15T06:52:38;53.05;;;23.38;;
69856;SDS011;57147;53.582;10.112;2023-04-15T06:57:42;46.50;;;24.48;;
69856;SDS011;57147;53.582;10.112;2023-04-15T07:02:43;40.00;;;22.33;;
69856;SDS011;57147;53.582;10.112;2023-04-15T07:07:43;43.05;;;26.63;;
69856;SDS011;57147;53.582;10.112;2023-04-15T07:12:46;48.05;;;27.10;;
69856;SDS011;57147;53.582;10.112;2023-04-15T07:17:47;43.20;;;23.30;;
69856;SDS011;57147;53.582;10.112;2023-04-15T07:22:48;41.70;;;22.65;;
69856;SDS011;57147;53.582;10.112;2023-04-15T07:27:51;43.40;;;25.85;;
69856;SDS011;57147;53.582;10.112;2023-04-15T07:32:52;41.97;;;25.70;;
69856;SDS011;57147;53.582;10.112;2023-04-15T07:37:53;48.90;;;27.40;;
69856;SDS011;57147;53.582;10.112;2023-04-15T07:42:57;42.20;;;23.38;;
69856;SDS011;57147;53.582;10.112;2023-04-15T07:47:58;48.47;;;26.52;;
69856;SDS011;57147;53.582;10.112;2023-04-15T07:52:58;47.47;;;24.77;;
69856;SDS011;57147;53.582;10.112;2023-04-15T07:58:01;50.17;;;26.95;;
69856;SDS011;57147;53.582;10.112;2023-04-15T08:03:02;42.17;;;23.00;;
69856;SDS011;57147;53.582;10.112;2023-04-15T08:08:02;43.95;;;24.63;;
69856;SDS011;57147;53.582;10.112;2023-04-15T08:13:06;42.05;;;24.30;;
69856;SDS011;57147;53.582;10.112;2023-04-15T08:18:07;40.97;;;24.80;;
69856;SDS011;57147;53.582;10.112;2023-04-15T08:23:07;44.25;;;24.50;;
69856;SDS011;57147;53.582;10.112;2023-04-15T08:28:10;42.50;;;24.02;;
69856;SDS011;57147;53.582;10.112;2023-04-15T08:33:11;40.85;;;22.98;;
69856;SDS011;57147;53.582;10.112;2023-04-15T08:38:12;42.47;;;24.95;;
69856;SDS011;57147;53.582;10.112;2023-04-15T08:43:17;44.28;;;23.08;;
69856;SDS011;57147;53.582;10.112;2023-04-15T08:48:22;44.67;;;24.15;;
69856;SDS011;57147;53.582;10.112;2023-04-15T08:53:26;45.33;;;25.50;;
69856;SDS011;57147;53.582;10.112;2023-04-15T08:58:32;46.05;;;26.00;;
69856;SDS011;57147;53.582;10.112;2023-04-15T09:03:34;48.67;;;26.65;;
69856;SDS011;57147;53.582;10.112;2023-04-15T09:08:36;39.75;;;23.75;;
69856;SDS011;57147;53.582;10.112;2023-04-15T09:13:39;45.35;;;23.88;;
69856;SDS011;57147;53.582;10.112;2023-04-15T09:18:40;44.50;;;26.27;;
69856;SDS011;57147;53.582;10.112;2023-04-15T09:23:41;44.78;;;27.83;;
69856;SDS011;57147;53.582;10.112;2023-04-15T09:28:56;47.38;;;25.42;;
69856;SDS011;57147;53.582;10.112;2023-04-15T09:34:03;38.75;;;23.10;;
69856;SDS011;57147;53.582;10.112;2023-04-15T09:39:04;33.17;;;21.13;;
69856;SDS011;57147;53.582;10.112;2023-04-15T09:44:07;36.67;;;22.27;;
69856;SDS011;57147;53.582;10.112;2023-04-15T09:49:24;32.95;;;20.05;;
69856;SDS011;57147;53.582;10.112;2023-04-15T09:54:25;32.28;;;21.58;;
69856;SDS011;57147;53.582;10.112;2023-04-15T09:59:35;28.02;;;18.83;;
69856;SDS011;57147;53.582;10.112;2023-04-15T10:04:40;28.95;;;17.90;;
69856;SDS011;57147;53.582;10.112;2023-04-15T10:09:41;24.13;;;15.13;;
69856;SDS011;57147;53.582;10.112;2023-04-15T10:14:47;24.27;;;16.30;;
69856;SDS011;57147;53.582;10.112;2023-04-15T10:19:52;23.35;;;16.50;;
69856;SDS011;57147;53.582;10.112;2023-04-15T10:24:54;23.98;;;16.98;;
69856;SDS011;57147;53.582;10.112;2023-04-15T10:29:58;24.10;;;18.80;;
69856;SDS011;57147;53.582;10.112;2023-04-15T10:35:01;23.52;;;17.60;;
69856;SDS011;57147;53.582;10.112;2023-04-15T10:45:31;20.13;;;13.77;;
69856;SDS011;57147;53.582;10.112;2023-04-15T10:50:32;20.60;;;14.32;;
69856;SDS011;57147;53.582;10.112;2023-04-15T10:55:33;17.42;;;13.75;;
69856;SDS011;57147;53.582;10.112;2023-04-15T11:00:37;13.93;;;10.68;;
69856;SDS011;57147;53.582;10.112;2023-04-15T11:05:50;13.52;;;10.52;;
69856;SDS011;57147;53.582;10.112;2023-04-15T11:10:52;15.90;;;10.13;;
69856;SDS011;57147;53.582;10.112;2023-04-15T11:15:59;15.65;;;12.07;;
69856;SDS011;57147;53.582;10.112;2023-04-15T11:21:02;15.43;;;11.85;;
69856;SDS011;57147;53.582;10.112;2023-04-15T11:26:05;13.40;;;11.20;;
69856;SDS011;57147;53.582;10.112;2023-04-15T11:31:11;15.80;;;11.23;;
69856;SDS011;57147;53.582;10.112;2023-04-15T11:36:12;13.98;;;11.45;;
69856;SDS011;57147;53.582;10.112;2023-04-15T11:41:13;14.50;;;11.82;;
69856;SDS011;57147;53.582;10.112;2023-04-15T11:46:16;14.13;;;10.50;;
69856;SDS011;57147;53.582;10.112;2023-04-15T11:51:17;14.25;;;11.10;;
69856;SDS011;57147;53.582;10.112;2023-04-15T11:56:19;12.40;;;10.60;;
69856;SDS011;57147;53.582;10.112;2023-04-15T12:01:23;12.43;;;9.35;;
69856;SDS011;57147;53.582;10.112;2023-04-15T12:06:31;12.48;;;9.07;;
69856;SDS011;57147;53.582;10.112;2023-04-15T12:11:33;14.48;;;11.02;;
69856;SDS011;57147;53.582;10.112;2023-04-15T12:16:38;12.48;;;9.68;;
69856;SDS011;57147;53.582;10.112;2023-04-15T12:21:44;12.20;;;10.25;;
69856;SDS011;57147;53.582;10.112;2023-04-15T12:26:47;12.95;;;9.80;;
69856;SDS011;57147;53.582;10.112;2023-04-15T12:31:52;15.30;;;11.18;;
69856;SDS011;57147;53.582;10.112;2023-04-15T12:36:53;14.13;;;12.63;;
69856;SDS011;57147;53.582;10.112;2023-04-15T12:41:54;12.32;;;10.82;;
69856;SDS011;57147;53.582;10.112;2023-04-15T12:46:57;14.82;;;10.48;;
69856;SDS011;57147;53.582;10.112;2023-04-15T12:52:00;13.75;;;10.35;;
69856;SDS011;57147;53.582;10.112;2023-04-15T12:57:02;13.60;;;11.45;;
69856;SDS011;57147;53.582;10.112;2023-04-15T13:02:08;12.20;;;10.30;;
69856;SDS011;57147;53.582;10.112;2023-04-15T13:07:09;13.80;;;10.32;;
69856;SDS011;57147;53.582;10.112;2023-04-15T13:12:10;14.00;;;9.80;;
69856;SDS011;57147;53.582;10.112;2023-04-15T13:17:14;13.55;;;10.68;;
69856;SDS011;57147;53.582;10.112;2023-04-15T13:22:14;13.85;;;10.27;;
69856;SDS011;57147;53.582;10.112;2023-04-15T13:27:15;14.88;;;11.95;;
69856;SDS011;57147;53.582;10.112;2023-04-15T13:32:18;12.23;;;9.20;;
69856;SDS011;57147;53.582;10.112;2023-04-15T13:37:19;10.13;;;9.10;;
69856;SDS011;57147;53.582;10.112;2023-04-15T13:42:19;11.55;;;10.38;;
69856;SDS011;57147;53.582;10.112;2023-04-15T13:47:23;12.18;;;9.80;;
69856;SDS011;57147;53.582;10.112;2023-04-15T13:52:32;11.48;;;10.30;;
69856;SDS011;57147;53.582;10.112;2023-04-15T13:57:35;13.32;;;11.90;;
69856;SDS011;57147;53.582;10.112;2023-04-15T14:08:10;9.18;;;8.23;;
69856;SDS011;57147;53.582;10.112;2023-04-15T14:18:12;12.10;;;9.93;;
69856;SDS011;57147;53.582;10.112;2023-04-15T14:23:15;10.52;;;8.60;;
69856;SDS011;57147;53.582;10.112;2023-04-15T14:28:18;10.85;;;9.75;;
69856;SDS011;57147;53.582;10.112;2023-04-15T14:33:20;10.07;;;7.78;;
69856;SDS011;57147;53.582;10.112;2023-04-15T14:43:30;11.38;;;8.15;;
69856;SDS011;57147;53.582;10.112;2023-04-15T14:48:30;8.30;;;7.07;;
69856;SDS011;57147;53.582;10.112;2023-04-15T14:53:38;9.95;;;6.10;;
69856;SDS011;57147;53.582;10.112;2023-04-15T14:58:41;9.15;;;7.93;;
69856;SDS011;57147;53.582;10.112;2023-04-15T15:03:42;9.43;;;6.82;;
69856;SDS011;57147;53.582;10.112;2023-04-15T15:08:45;10.07;;;8.02;;
69856;SDS011;57147;53.582;10.112;2023-04-15T15:13:49;10.73;;;8.75;;
69856;SDS011;57147;53.582;10.112;2023-04-15T15:18:50;10.43;;;8.55;;
69856;SDS011;57147;53.582;10.112;2023-04-15T15:23:53;10.32;;;8.00;;
69856;SDS011;57147;53.582;10.112;2023-04-15T15:28:54;9.63;;;7.97;;
69856;SDS011;57147;53.582;10.112;2023-04-15T15:33:55;13.63;;;11.35;;
69856;SDS011;57147;53.582;10.112;2023-04-15T15:38:58;9.52;;;7.88;;
69856;SDS011;57147;53.582;10.112;2023-04-15T15:43:59;8.55;;;6.57;;
69856;SDS011;57147;53.582;10.112;2023-04-15T15:49:01;10.25;;;7.75;;
69856;SDS011;57147;53.582;10.112;2023-04-15T15:54:04;13.73;;;8.18;;
69856;SDS011;57147;53.582;10.112;2023-04-15T15:59:05;10.10;;;7.93;;
69856;SDS011;57147;53.582;10.112;2023-04-15T16:04:06;11.50;;;10.30;;
69856;SDS011;57147;53.582;10.112;2023-04-15T16:09:09;10.55;;;8.43;;
69856;SDS011;57147;53.582;10.112;2023-04-15T16:14:10;14.30;;;10.90;;
69856;SDS011;57147;53.582;10.112;2023-04-15T16:19:11;14.43;;;11.80;;
69856;SDS011;57147;53.582;10.112;2023-04-15T16:24:14;15.95;;;12.98;;
69856;SDS011;57147;53.582;10.112;2023-04-15T16:29:14;17.90;;;13.65;;
69856;SDS011;57147;53.582;10.112;2023-04-15T16:34:15;14.40;;;11.90;;
69856;SDS011;57147;53.582;10.112;2023-04-15T16:39:19;15.88;;;12.70;;
69856;SDS011;57147;53.582;10.112;2023-04-15T16:44:19;15.93;;;13.65;;
69856;SDS011;57147;53.582;10.112;2023-04-15T16:49:20;19.42;;;14.13;;
69856;SDS011;57147;53.582;10.112;2023-04-15T16:54:23;18.35;;;13.10;;
69856;SDS011;57147;53.582;10.112;2023-04-15T16:59:24;16.45;;;12.77;;
69856;SDS011;57147;53.582;10.112;2023-04-15T17:04:26;19.92;;;13.07;;
69856;SDS011;57147;53.582;10.112;2023-04-15T17:09:29;16.38;;;13.23;;
69856;SDS011;57147;53.582;10.112;2023-04-15T17:14:30;17.20;;;12.57;;
69856;SDS011;57147;53.582;10.112;2023-04-15T17:19:31;19.65;;;16.40;;
69856;SDS011;57147;53.582;10.112;2023-04-15T17:24:34;18.83;;;15.93;;
69856;SDS011;57147;53.582;10.112;2023-04-15T17:29:35;17.52;;;13.20;;
69856;SDS011;57147;53.582;10.112;2023-04-15T17:34:35;19.20;;;13.68;;
69856;SDS011;57147;53.582;10.112;2023-04-15T17:39:39;22.48;;;15.32;;
69856;SDS011;57147;53.582;10.112;2023-04-15T17:44:41;19.63;;;14.60;;
69856;SDS011;57147;53.582;10.112;2023-04-15T17:49:42;18.88;;;13.00;;
69856;SDS011;57147;53.582;10.112;2023-04-15T17:54:46;20.58;;;13.38;;
69856;SDS011;57147;53.582;10.112;2023-04-15T17:59:47;18.85;;;14.25;;
69856;SDS011;57147;53.582;10.112;2023-04-15T18:04:48;21.23;;;15.68;;
69856;SDS011;57147;53.582;10.112;2023-04-15T18:09:52;19.60;;;14.65;;
69856;SDS011;57147;53.582;10.112;2023-04-15T18:14:53;20.17;;;14.00;;
69856;SDS011;57147;53.582;10.112;2023-04-15T18:19:54;22.27;;;16.83;;
69856;SDS011;57147;53.582;10.112;2023-04-15T18:24:57;21.95;;;14.68;;
69856;SDS011;57147;53.582;10.112;2023-04-15T18:35:28;23.83;;;16.50;;
69856;SDS011;57147;53.582;10.112;2023-04-15T18:40:31;21.05;;;14.70;;
69856;SDS011;57147;53.582;10.112;2023-04-15T18:45:32;19.52;;;14.57;;
69856;SDS011;57147;53.582;10.112;2023-04-15T18:50:33;22.48;;;15.43;;
69856;SDS011;57147;53.582;10.112;2023-04-15T18:55:37;22.27;;;15.02;;
69856;SDS011;57147;53.582;10.112;2023-04-15T19:00:38;24.40;;;16.60;;
69856;SDS011;57147;53.582;10.112;2023-04-15T19:05:39;21.50;;;14.95;;
69856;SDS011;57147;53.582;10.112;2023-04-15T19:10:42;22.15;;;15.02;;
69856;SDS011;57147;53.582;10.112;2023-04-15T19:15:43;24.02;;;16.00;;
69856;SDS011;57147;53.582;10.112;2023-04-15T19:20:46;21.73;;;15.07;;
69856;SDS011;57147;53.582;10.112;2023-04-15T19:25:49;25.48;;;16.92;;
69856;SDS011;57147;53.582;10.112;2023-04-15T19:30:50;18.65;;;12.27;;
69856;SDS011;57147;53.582;10.112;2023-04-15T19:35:50;22.80;;;14.70;;
69856;SDS011;57147;53.582;10.112;2023-04-15T19:40:53;21.83;;;12.93;;
69856;SDS011;57147;53.582;10.112;2023-04-15T19:45:54;21.95;;;13.73;;
69856;SDS011;57147;53.582;10.112;2023-04-15T19:50:55;23.45;;;14.18;;
69856;SDS011;57147;53.582;10.112;2023-04-15T19:55:58;18.42;;;12.05;;
69856;SDS011;57147;53.582;10.112;2023-04-15T20:01:00;20.25;;;13.77;;
69856;SDS011;57147;53.582;10.112;2023-04-15T20:06:00;25.85;;;16.00;;
69856;SDS011;57147;53.582;10.112;2023-04-15T20:11:04;19.88;;;12.77;;
69856;SDS011;57147;53.582;10.112;2023-04-15T20:16:04;19.77;;;12.45;;
69856;SDS011;57147;53.582;10.112;2023-04-15T20:21:05;21.20;;;15.05;;
69856;SDS011;57147;53.582;10.112;2023-04-15T20:26:08;20.38;;;13.88;;
69856;SDS011;57147;53.582;10.112;2023-04-15T20:31:09;17.75;;;13.25;;
69856;SDS011;57147;53.582;10.112;2023-04-15T20:36:09;19.60;;;12.85;;
69856;SDS011;57147;53.582;10.112;2023-04-15T20:41:13;20.02;;;13.18;;
69856;SDS011;57147;53.582;10.112;2023-04-15T20:46:14;21.38;;;13.10;;
69856;SDS011;57147;53.582;10.112;2023-04-15T20:51:14;23.80;;;14.93;;
69856;SDS011;57147;53.582;10.112;2023-04-15T20:56:18;26.95;;;17.13;;
69856;SDS011;57147;53.582;10.112;2023-04-15T21:01:19;23.48;;;14.52;;
69856;SDS011;57147;53.582;10.112;2023-04-15T21:06:19;22.15;;;15.20;;
69856;SDS011;57147;53.582;10.112;2023-04-15T21:11:23;22.73;;;14.43;;
69856;SDS011;57147;53.582;10.112;2023-04-15T21:16:23;22.33;;;15.40;;
69856;SDS011;57147;53.582;10.112;2023-04-15T21:21:24;78.55;;;34.47;;
69856;SDS011;57147;53.582;10.112;2023-04-15T21:26:28;58.20;;;29.05;;
69856;SDS011;57147;53.582;10.112;2023-04-15T21:31:28;41.00;;;22.77;;
69856;SDS011;57147;53.582;10.112;2023-04-15T21:36:29;27.13;;;16.00;;
69856;SDS011;57147;53.582;10.112;2023-04-15T21:41:32;40.13;;;24.17;;
69856;SDS011;57147;53.582;10.112;2023-04-15T21:46:33;28.85;;;16.13;;
69856;SDS011;57147;53.582;10.112;2023-04-15T21:51:33;27.80;;;15.18;;
69856;SDS011;57147;53.582;10.112;2023-04-15T21:56:37;25.52;;;14.52;;
69856;SDS011;57147;53.582;10.112;2023-04-15T22:01:37;27.50;;;15.02;;
69856;SDS011;57147;53.582;10.112;2023-04-15T22:06:38;21.55;;;15.60;;
69856;SDS011;57147;53.582;10.112;2023-04-15T22:11:41;25.60;;;17.13;;
69856;SDS011;57147;53.582;10.112;2023-04-15T22:16:42;24.45;;;15.88;;
69856;SDS011;57147;53.582;10.112;2023-04-15T22:21:42;27.40;;;20.02;;
69856;SDS011;57147;53.582;10.112;2023-04-15T22:26:45;26.25;;;16.55;;
69856;SDS011;57147;53.582;10.112;2023-04-15T22:31:46;28.30;;;16.00;;
69856;SDS011;57147;53.582;10.112;2023-04-15T22:36:47;24.13;;;15.23;;
69856;SDS011;57147;53.582;10.112;2023-04-15T22:41:51;22.92;;;13.90;;
69856;SDS011;57147;53.582;10.112;2023-04-15T22:46:51;24.77;;;15.30;;
69856;SDS011;57147;53.582;10.112;2023-04-15T22:51:52;25.73;;;15.85;;
69856;SDS011;57147;53.582;10.112;2023-04-15T22:56:57;28.38;;;18.15;;
69856;SDS011;57147;53.582;10.112;2023-04-15T23:01:57;22.50;;;13.32;;
69856;SDS011;57147;53.582;10.112;2023-04-15T23:06:58;24.25;;;15.88;;
69856;SDS011;57147;53.582;10.112;2023-04-15T23:12:01;27.15;;;17.13;;
69856;SDS011;57147;53.582;10.112;2023-04-15T23:17:02;25.73;;;15.75;;
69856;SDS011;57147;53.582;10.112;2023-04-15T23:22:03;23.70;;;16.70;;
69856;SDS011;57147;53.582;10.112;2023-04-15T23:27:06;23.70;;;15.30;;
69856;SDS011;57147;53.582;10.112;2023-04-15T23:32:06;26.40;;;15.38;;
69856;SDS011;57147;53.582;10.112;2023-04-15T23:37:07;21.77;;;13.20;;
69856;SDS011;57147;53.582;10.112;2023-04-15T23:42:11;25.48;;;15.32;;
69856;SDS011;57147;53.582;10.112;2023-04-15T23:47:11;22.35;;;14.88;;
69856;SDS011;57147;53.582;10.112;2023-04-15T23:52:12;21.30;;;14.57;;
69856;SDS011;57147;53.582;10.112;2023-04-15T23:57:15;24.08;;;15.05;;
